createdAt,value
2022-08-30T00:00:52.000Z,22.00
2022-08-30T00:01:43.000Z,21.99
2022-08-30T00:02:43.000Z,21.99
2022-08-30T00:03:44.000Z,21.99
2022-08-30T00:04:43.000Z,22.00
2022-08-30T00:05:44.000Z,22.02
2022-08-30T00:06:44.000Z,22.04
2022-08-30T00:07:44.000Z,22.06
2022-08-30T00:08:45.000Z,22.08
2022-08-30T00:09:44.000Z,22.07
2022-08-30T00:10:45.000Z,22.00
2022-08-30T00:11:44.000Z,21.94
2022-08-30T00:12:44.000Z,21.95
2022-08-30T00:13:47.000Z,21.94
2022-08-30T00:14:44.000Z,21.91
2022-08-30T00:15:45.000Z,21.92
2022-08-30T00:16:44.000Z,21.92
2022-08-30T00:17:44.000Z,21.85
2022-08-30T00:18:44.000Z,21.87
2022-08-30T00:19:44.000Z,21.87
2022-08-30T00:20:45.000Z,21.86
2022-08-30T00:21:44.000Z,21.86
2022-08-30T00:22:44.000Z,21.85
2022-08-30T00:23:44.000Z,21.84
2022-08-30T00:24:44.000Z,21.84
2022-08-30T00:25:44.000Z,21.83
2022-08-30T00:26:44.000Z,21.78
2022-08-30T00:27:44.000Z,21.77
2022-08-30T00:28:44.000Z,21.79
2022-08-30T00:29:45.000Z,21.79
2022-08-30T00:30:45.000Z,21.80
2022-08-30T00:31:44.000Z,21.81
2022-08-30T00:32:44.000Z,21.81
2022-08-30T00:33:44.000Z,21.80
2022-08-30T00:34:44.000Z,21.76
2022-08-30T00:35:44.000Z,21.74
2022-08-30T00:36:44.000Z,21.59
2022-08-30T00:37:44.000Z,21.53
2022-08-30T00:38:43.000Z,21.56
2022-08-30T00:39:44.000Z,21.56
2022-08-30T00:40:45.000Z,21.56
2022-08-30T00:41:44.000Z,21.56
2022-08-30T00:42:44.000Z,21.55
2022-08-30T00:43:44.000Z,21.55
2022-08-30T00:44:44.000Z,21.55
2022-08-30T00:45:44.000Z,21.55
2022-08-30T00:46:43.000Z,21.55
2022-08-30T00:47:44.000Z,21.52
2022-08-30T00:48:46.000Z,21.51
2022-08-30T00:49:48.000Z,21.50
2022-08-30T00:50:50.000Z,21.50
2022-08-30T00:51:44.000Z,21.48
2022-08-30T00:52:47.000Z,21.48
2022-08-30T00:53:49.000Z,21.50
2022-08-30T00:54:46.000Z,21.46
2022-08-30T00:55:44.000Z,21.46
2022-08-30T00:56:46.000Z,21.44
2022-08-30T00:57:45.000Z,21.41
2022-08-30T00:58:48.000Z,21.40
2022-08-30T00:59:47.000Z,21.39
2022-08-30T01:00:44.000Z,21.38
2022-08-30T01:01:44.000Z,21.38
2022-08-30T01:02:43.000Z,21.29
2022-08-30T01:03:45.000Z,21.30
2022-08-30T01:04:44.000Z,21.25
2022-08-30T01:05:46.000Z,21.17
2022-08-30T01:06:44.000Z,21.18
2022-08-30T01:07:44.000Z,21.15
2022-08-30T01:08:45.000Z,21.17
2022-08-30T01:09:45.000Z,21.12
2022-08-30T01:10:44.000Z,21.11
2022-08-30T01:11:45.000Z,21.00
2022-08-30T01:12:46.000Z,20.99
2022-08-30T01:13:47.000Z,21.00
2022-08-30T01:14:45.000Z,21.01
2022-08-30T01:15:45.000Z,20.98
2022-08-30T01:16:44.000Z,20.96
2022-08-30T01:17:46.000Z,20.94
2022-08-30T01:18:44.000Z,20.93
2022-08-30T01:19:52.000Z,20.95
2022-08-30T01:21:07.000Z,20.96
2022-08-30T01:21:54.000Z,20.96
2022-08-30T01:23:08.000Z,20.96
2022-08-30T01:23:47.000Z,20.97
2022-08-30T01:24:48.000Z,20.98
2022-08-30T01:25:48.000Z,20.98
2022-08-30T01:26:44.000Z,20.97
2022-08-30T01:27:50.000Z,21.00
2022-08-30T01:28:54.000Z,20.99
2022-08-30T01:29:44.000Z,20.95
2022-08-30T01:30:44.000Z,20.95
2022-08-30T01:31:45.000Z,20.94
2022-08-30T01:32:46.000Z,20.88
2022-08-30T01:33:44.000Z,20.89
2022-08-30T01:34:47.000Z,20.84
2022-08-30T01:35:51.000Z,20.83
2022-08-30T01:36:45.000Z,20.80
2022-08-30T01:37:44.000Z,20.81
2022-08-30T01:38:50.000Z,20.83
2022-08-30T01:39:44.000Z,20.83
2022-08-30T01:40:43.000Z,20.77
2022-08-30T01:41:44.000Z,20.76
2022-08-30T01:42:44.000Z,20.69
2022-08-30T01:43:44.000Z,20.67
2022-08-30T01:44:44.000Z,20.68
2022-08-30T01:45:43.000Z,20.69
2022-08-30T01:46:46.000Z,20.66
2022-08-30T01:47:44.000Z,20.67
2022-08-30T01:48:44.000Z,20.67
2022-08-30T01:49:45.000Z,20.69
2022-08-30T01:50:43.000Z,20.70
2022-08-30T01:51:44.000Z,20.70
2022-08-30T01:52:43.000Z,20.69
2022-08-30T01:53:43.000Z,20.66
2022-08-30T01:54:44.000Z,20.70
2022-08-30T01:55:44.000Z,20.68
2022-08-30T01:56:43.000Z,20.71
2022-08-30T01:57:45.000Z,20.70
2022-08-30T01:58:44.000Z,20.69
2022-08-30T01:59:46.000Z,20.65
2022-08-30T02:00:43.000Z,20.66
2022-08-30T02:01:43.000Z,20.62
2022-08-30T02:02:43.000Z,20.60
2022-08-30T02:03:44.000Z,20.58
2022-08-30T02:04:45.000Z,20.58
2022-08-30T02:05:43.000Z,20.54
2022-08-30T02:06:44.000Z,20.55
2022-08-30T02:07:43.000Z,20.55
2022-08-30T02:08:45.000Z,20.57
2022-08-30T02:09:44.000Z,20.55
2022-08-30T02:10:44.000Z,20.55
2022-08-30T02:11:44.000Z,20.54
2022-08-30T02:12:44.000Z,20.55
2022-08-30T02:13:44.000Z,20.55
2022-08-30T02:14:44.000Z,20.55
2022-08-30T02:15:43.000Z,20.54
2022-08-30T02:16:44.000Z,20.53
2022-08-30T02:17:43.000Z,20.54
2022-08-30T02:18:44.000Z,20.55
2022-08-30T02:19:44.000Z,20.46
2022-08-30T02:20:44.000Z,20.47
2022-08-30T02:21:44.000Z,20.46
2022-08-30T02:22:44.000Z,20.44
2022-08-30T02:23:44.000Z,20.44
2022-08-30T02:24:44.000Z,20.41
2022-08-30T02:25:44.000Z,20.41
2022-08-30T02:26:44.000Z,20.41
2022-08-30T02:27:43.000Z,20.40
2022-08-30T02:28:44.000Z,20.37
2022-08-30T02:29:44.000Z,20.39
2022-08-30T02:30:45.000Z,20.35
2022-08-30T02:31:44.000Z,20.28
2022-08-30T02:32:44.000Z,20.21
2022-08-30T02:33:44.000Z,20.07
2022-08-30T02:34:45.000Z,19.86
2022-08-30T02:35:44.000Z,19.90
2022-08-30T02:36:44.000Z,19.88
2022-08-30T02:37:44.000Z,19.82
2022-08-30T02:38:45.000Z,19.82
2022-08-30T02:39:43.000Z,19.81
2022-08-30T02:40:43.000Z,19.79
2022-08-30T02:41:43.000Z,19.77
2022-08-30T02:42:43.000Z,19.77
2022-08-30T02:43:44.000Z,19.73
2022-08-30T02:44:43.000Z,19.72
2022-08-30T02:45:43.000Z,19.65
2022-08-30T02:46:44.000Z,19.66
2022-08-30T02:47:43.000Z,19.66
2022-08-30T02:48:43.000Z,19.64
2022-08-30T02:49:43.000Z,19.62
2022-08-30T02:50:49.000Z,19.60
2022-08-30T02:51:43.000Z,19.59
2022-08-30T02:52:43.000Z,19.53
2022-08-30T02:53:44.000Z,19.54
2022-08-30T02:54:44.000Z,19.54
2022-08-30T02:55:44.000Z,19.55
2022-08-30T02:56:45.000Z,19.56
2022-08-30T02:57:44.000Z,19.55
2022-08-30T02:58:44.000Z,19.58
2022-08-30T02:59:44.000Z,19.60
2022-08-30T03:00:43.000Z,19.62
2022-08-30T03:01:44.000Z,19.62
2022-08-30T03:02:43.000Z,19.62
2022-08-30T03:03:45.000Z,19.65
2022-08-30T03:04:43.000Z,19.63
2022-08-30T03:05:43.000Z,19.65
2022-08-30T03:06:43.000Z,19.64
2022-08-30T03:07:45.000Z,19.67
2022-08-30T03:08:44.000Z,19.67
2022-08-30T03:09:44.000Z,19.66
2022-08-30T03:10:45.000Z,19.68
2022-08-30T03:11:44.000Z,19.70
2022-08-30T03:12:44.000Z,19.70
2022-08-30T03:13:44.000Z,19.60
2022-08-30T03:14:44.000Z,19.61
2022-08-30T03:15:44.000Z,19.63
2022-08-30T03:16:44.000Z,19.61
2022-08-30T03:17:44.000Z,19.64
2022-08-30T03:18:44.000Z,19.61
2022-08-30T03:19:45.000Z,19.60
2022-08-30T03:20:45.000Z,19.60
2022-08-30T03:21:44.000Z,19.63
2022-08-30T03:22:44.000Z,19.63
2022-08-30T03:23:44.000Z,19.60
2022-08-30T03:24:44.000Z,19.63
2022-08-30T03:25:44.000Z,19.61
2022-08-30T03:26:44.000Z,19.61
2022-08-30T03:27:44.000Z,19.62
2022-08-30T03:28:44.000Z,19.62
2022-08-30T03:29:44.000Z,19.62
2022-08-30T03:30:44.000Z,19.61
2022-08-30T03:31:44.000Z,19.61
2022-08-30T03:32:44.000Z,19.60
2022-08-30T03:33:44.000Z,19.61
2022-08-30T03:34:44.000Z,19.60
2022-08-30T03:35:44.000Z,19.61
2022-08-30T03:36:44.000Z,19.63
2022-08-30T03:37:44.000Z,19.62
2022-08-30T03:38:44.000Z,19.60
2022-08-30T03:39:44.000Z,19.61
2022-08-30T03:40:44.000Z,19.61
2022-08-30T03:41:44.000Z,19.59
2022-08-30T03:42:44.000Z,19.56
2022-08-30T03:43:46.000Z,19.56
2022-08-30T03:44:44.000Z,19.58
2022-08-30T03:45:44.000Z,19.55
2022-08-30T03:46:44.000Z,19.54
2022-08-30T03:47:44.000Z,19.55
2022-08-30T03:48:44.000Z,19.54
2022-08-30T03:49:44.000Z,19.55
2022-08-30T03:50:44.000Z,19.54
2022-08-30T03:51:43.000Z,19.54
2022-08-30T03:52:44.000Z,19.53
2022-08-30T03:53:43.000Z,19.54
2022-08-30T03:54:44.000Z,19.54
2022-08-30T03:55:44.000Z,19.53
2022-08-30T03:56:44.000Z,19.54
2022-08-30T03:57:43.000Z,19.56
2022-08-30T03:58:44.000Z,19.56
2022-08-30T03:59:44.000Z,19.53
2022-08-30T04:00:44.000Z,19.53
2022-08-30T04:01:44.000Z,19.53
2022-08-30T04:02:44.000Z,19.52
2022-08-30T04:03:44.000Z,19.52
2022-08-30T04:04:43.000Z,19.49
2022-08-30T04:05:44.000Z,19.52
2022-08-30T04:06:44.000Z,19.50
2022-08-30T04:07:44.000Z,19.48
2022-08-30T04:08:44.000Z,19.47
2022-08-30T04:09:45.000Z,19.44
2022-08-30T04:10:44.000Z,19.43
2022-08-30T04:11:44.000Z,19.36
2022-08-30T04:12:44.000Z,19.34
2022-08-30T04:13:44.000Z,19.34
2022-08-30T04:14:44.000Z,19.33
2022-08-30T04:15:44.000Z,19.32
2022-08-30T04:16:44.000Z,19.34
2022-08-30T04:17:44.000Z,19.36
2022-08-30T04:18:44.000Z,19.36
2022-08-30T04:19:44.000Z,19.38
2022-08-30T04:20:44.000Z,19.39
2022-08-30T04:21:44.000Z,19.38
2022-08-30T04:22:44.000Z,19.36
2022-08-30T04:23:44.000Z,19.35
2022-08-30T04:24:44.000Z,19.35
2022-08-30T04:25:44.000Z,19.33
2022-08-30T04:26:44.000Z,19.30
2022-08-30T04:27:44.000Z,19.26
2022-08-30T04:28:44.000Z,19.20
2022-08-30T04:29:44.000Z,19.17
2022-08-30T04:30:44.000Z,19.15
2022-08-30T04:31:44.000Z,19.15
2022-08-30T04:32:44.000Z,19.16
2022-08-30T04:33:44.000Z,19.16
2022-08-30T04:34:44.000Z,19.12
2022-08-30T04:35:47.000Z,19.12
2022-08-30T04:36:44.000Z,19.13
2022-08-30T04:37:44.000Z,19.09
2022-08-30T04:38:44.000Z,19.06
2022-08-30T04:39:45.000Z,19.01
2022-08-30T04:40:45.000Z,19.02
2022-08-30T04:41:45.000Z,19.02
2022-08-30T04:42:43.000Z,18.99
2022-08-30T04:43:45.000Z,18.93
2022-08-30T04:44:43.000Z,18.92
2022-08-30T04:45:44.000Z,18.88
2022-08-30T04:46:43.000Z,18.90
2022-08-30T04:47:43.000Z,18.89
2022-08-30T04:48:45.000Z,18.85
2022-08-30T04:49:43.000Z,18.73
2022-08-30T04:50:44.000Z,18.72
2022-08-30T04:51:44.000Z,18.63
2022-08-30T04:52:44.000Z,18.35
2022-08-30T04:53:44.000Z,18.45
2022-08-30T04:54:43.000Z,18.42
2022-08-30T04:55:43.000Z,18.40
2022-08-30T04:56:43.000Z,18.42
2022-08-30T04:57:43.000Z,18.44
2022-08-30T04:58:46.000Z,18.42
2022-08-30T04:59:43.000Z,18.39
2022-08-30T05:00:43.000Z,18.40
2022-08-30T05:01:43.000Z,18.42
2022-08-30T05:02:43.000Z,18.42
2022-08-30T05:03:43.000Z,18.44
2022-08-30T05:04:48.000Z,18.45
2022-08-30T05:05:48.000Z,18.47
2022-08-30T05:06:43.000Z,18.47
2022-08-30T05:07:43.000Z,18.48
2022-08-30T05:08:44.000Z,18.41
2022-08-30T05:09:43.000Z,18.16
2022-08-30T05:10:46.000Z,18.29
2022-08-30T05:11:44.000Z,18.27
2022-08-30T05:12:43.000Z,18.26
2022-08-30T05:13:44.000Z,18.29
2022-08-30T05:14:43.000Z,18.27
2022-08-30T05:15:44.000Z,18.26
2022-08-30T05:16:44.000Z,18.27
2022-08-30T05:17:43.000Z,18.33
2022-08-30T05:18:45.000Z,18.35
2022-08-30T05:19:43.000Z,18.36
2022-08-30T05:20:43.000Z,18.39
2022-08-30T05:21:44.000Z,18.40
2022-08-30T05:22:48.000Z,18.41
2022-08-30T05:23:44.000Z,18.37
2022-08-30T05:24:43.000Z,18.32
2022-08-30T05:25:44.000Z,18.33
2022-08-30T05:26:43.000Z,18.33
2022-08-30T05:27:44.000Z,18.31
2022-08-30T05:28:44.000Z,18.29
2022-08-30T05:29:44.000Z,18.32
2022-08-30T05:30:43.000Z,18.32
2022-08-30T05:31:43.000Z,18.34
2022-08-30T05:32:44.000Z,18.34
2022-08-30T05:33:44.000Z,18.35
2022-08-30T05:34:43.000Z,18.36
2022-08-30T05:35:43.000Z,18.37
2022-08-30T05:36:43.000Z,18.41
2022-08-30T05:37:44.000Z,18.46
2022-08-30T05:38:44.000Z,18.48
2022-08-30T05:39:43.000Z,18.52
2022-08-30T05:40:43.000Z,18.45
2022-08-30T05:41:43.000Z,18.46
2022-08-30T05:42:45.000Z,18.42
2022-08-30T05:43:44.000Z,18.50
2022-08-30T05:44:43.000Z,18.52
2022-08-30T05:45:44.000Z,18.44
2022-08-30T05:46:45.000Z,18.45
2022-08-30T05:47:44.000Z,18.50
2022-08-30T05:48:44.000Z,18.55
2022-08-30T05:49:43.000Z,18.56
2022-08-30T05:50:43.000Z,18.41
2022-08-30T05:51:44.000Z,18.42
2022-08-30T05:52:44.000Z,18.49
2022-08-30T05:53:45.000Z,18.56
2022-08-30T05:54:44.000Z,18.59
2022-08-30T05:55:43.000Z,18.56
2022-08-30T05:56:44.000Z,18.62
2022-08-30T05:57:43.000Z,18.64
2022-08-30T05:58:44.000Z,18.65
2022-08-30T05:59:44.000Z,18.60
2022-08-30T06:00:44.000Z,18.66
2022-08-30T06:01:45.000Z,18.70
2022-08-30T06:02:44.000Z,18.72
2022-08-30T06:03:43.000Z,18.79
2022-08-30T06:04:43.000Z,18.82
2022-08-30T06:05:43.000Z,18.73
2022-08-30T06:06:44.000Z,18.76
2022-08-30T06:07:43.000Z,18.79
2022-08-30T06:08:45.000Z,18.77
2022-08-30T06:09:44.000Z,18.70
2022-08-30T06:10:43.000Z,18.79
2022-08-30T06:11:44.000Z,18.73
2022-08-30T06:12:44.000Z,18.72
2022-08-30T06:13:45.000Z,18.79
2022-08-30T06:14:44.000Z,18.74
2022-08-30T06:15:44.000Z,18.72
2022-08-30T06:16:45.000Z,18.71
2022-08-30T06:17:44.000Z,18.63
2022-08-30T06:18:44.000Z,18.70
2022-08-30T06:19:44.000Z,18.74
2022-08-30T06:20:46.000Z,18.73
2022-08-30T06:21:47.000Z,18.74
2022-08-30T06:22:44.000Z,18.72
2022-08-30T06:23:44.000Z,18.75
2022-08-30T06:24:45.000Z,18.77
2022-08-30T06:25:45.000Z,18.80
2022-08-30T06:26:45.000Z,18.83
2022-08-30T06:27:44.000Z,18.86
2022-08-30T06:28:44.000Z,18.76
2022-08-30T06:29:44.000Z,18.78
2022-08-30T06:30:44.000Z,18.78
2022-08-30T06:31:44.000Z,18.66
2022-08-30T06:32:44.000Z,18.63
2022-08-30T06:33:44.000Z,18.66
2022-08-30T06:34:44.000Z,18.70
2022-08-30T06:35:44.000Z,18.71
2022-08-30T06:36:44.000Z,18.69
2022-08-30T06:37:44.000Z,18.75
2022-08-30T06:38:44.000Z,18.80
2022-08-30T06:39:44.000Z,18.83
2022-08-30T06:40:44.000Z,18.88
2022-08-30T06:41:44.000Z,18.93
2022-08-30T06:42:44.000Z,18.96
2022-08-30T06:43:44.000Z,18.98
2022-08-30T06:44:44.000Z,18.99
2022-08-30T06:45:43.000Z,19.04
2022-08-30T06:46:43.000Z,19.09
2022-08-30T06:47:43.000Z,19.11
2022-08-30T06:48:44.000Z,19.16
2022-08-30T06:49:43.000Z,19.21
2022-08-30T06:50:44.000Z,19.28
2022-08-30T06:51:43.000Z,19.30
2022-08-30T06:52:44.000Z,19.30
2022-08-30T06:53:44.000Z,19.31
2022-08-30T06:54:43.000Z,19.37
2022-08-30T06:55:43.000Z,19.43
2022-08-30T06:56:44.000Z,19.41
2022-08-30T06:57:44.000Z,19.40
2022-08-30T06:58:44.000Z,19.41
2022-08-30T06:59:44.000Z,19.44
2022-08-30T07:00:43.000Z,19.47
2022-08-30T07:01:43.000Z,19.54
2022-08-30T07:02:44.000Z,19.56
2022-08-30T07:03:44.000Z,19.62
2022-08-30T07:04:43.000Z,19.62
2022-08-30T07:05:45.000Z,19.67
2022-08-30T07:06:43.000Z,19.71
2022-08-30T07:07:43.000Z,19.80
2022-08-30T07:08:45.000Z,19.82
2022-08-30T07:09:44.000Z,19.87
2022-08-30T07:10:45.000Z,19.93
2022-08-30T07:11:43.000Z,19.95
2022-08-30T07:12:44.000Z,20.02
2022-08-30T07:13:44.000Z,20.06
2022-08-30T07:14:43.000Z,20.14
2022-08-30T07:15:44.000Z,20.20
2022-08-30T07:16:44.000Z,20.26
2022-08-30T07:17:48.000Z,20.31
2022-08-30T07:18:49.000Z,20.33
2022-08-30T07:19:43.000Z,20.41
2022-08-30T07:20:46.000Z,20.47
2022-08-30T07:21:43.000Z,20.57
2022-08-30T07:22:45.000Z,20.63
2022-08-30T07:23:45.000Z,20.66
2022-08-30T07:24:44.000Z,20.71
2022-08-30T07:25:43.000Z,20.76
2022-08-30T07:26:48.000Z,20.79
2022-08-30T07:27:44.000Z,20.84
2022-08-30T07:28:44.000Z,20.88
2022-08-30T07:29:44.000Z,20.92
2022-08-30T07:30:43.000Z,20.94
2022-08-30T07:31:43.000Z,21.01
2022-08-30T07:32:43.000Z,21.05
2022-08-30T07:33:44.000Z,21.06
2022-08-30T07:34:43.000Z,21.11
2022-08-30T07:35:43.000Z,21.14
2022-08-30T07:36:44.000Z,21.22
2022-08-30T07:37:44.000Z,21.22
2022-08-30T07:38:45.000Z,21.29
2022-08-30T07:39:44.000Z,21.32
2022-08-30T07:40:43.000Z,21.36
2022-08-30T07:41:44.000Z,21.41
2022-08-30T07:42:43.000Z,21.43
2022-08-30T07:43:44.000Z,21.49
2022-08-30T07:44:43.000Z,21.51
2022-08-30T07:45:43.000Z,21.55
2022-08-30T07:46:43.000Z,21.59
2022-08-30T07:47:43.000Z,21.61
2022-08-30T07:48:43.000Z,21.64
2022-08-30T07:49:43.000Z,21.60
2022-08-30T07:50:45.000Z,21.60
2022-08-30T07:51:43.000Z,21.57
2022-08-30T07:52:43.000Z,21.61
2022-08-30T07:53:43.000Z,21.65
2022-08-30T07:54:43.000Z,21.63
2022-08-30T07:55:43.000Z,21.67
2022-08-30T07:56:43.000Z,21.63
2022-08-30T07:57:43.000Z,21.66
2022-08-30T07:58:43.000Z,21.62
2022-08-30T07:59:43.000Z,21.59
2022-08-30T08:00:43.000Z,21.53
2022-08-30T08:01:43.000Z,21.55
2022-08-30T08:02:43.000Z,21.54
2022-08-30T08:03:44.000Z,21.57
2022-08-30T08:04:43.000Z,21.60
2022-08-30T08:05:44.000Z,21.61
2022-08-30T08:06:43.000Z,21.62
2022-08-30T08:07:43.000Z,21.65
2022-08-30T08:08:46.000Z,21.66
2022-08-30T08:09:43.000Z,21.67
2022-08-30T08:10:43.000Z,21.69
2022-08-30T08:11:43.000Z,21.74
2022-08-30T08:12:43.000Z,21.73
2022-08-30T08:13:45.000Z,21.76
2022-08-30T08:14:44.000Z,21.76
2022-08-30T08:15:44.000Z,21.78
2022-08-30T08:16:45.000Z,21.78
2022-08-30T08:17:44.000Z,21.88
2022-08-30T08:18:44.000Z,21.90
2022-08-30T08:19:44.000Z,21.93
2022-08-30T08:20:44.000Z,21.98
2022-08-30T08:21:44.000Z,22.00
2022-08-30T08:22:44.000Z,22.02
2022-08-30T08:23:44.000Z,22.06
2022-08-30T08:24:43.000Z,22.07
2022-08-30T08:25:44.000Z,22.12
2022-08-30T08:26:44.000Z,22.15
2022-08-30T08:27:48.000Z,22.18
2022-08-30T08:28:45.000Z,22.22
2022-08-30T08:29:44.000Z,22.23
2022-08-30T08:30:45.000Z,22.26
2022-08-30T08:31:45.000Z,22.22
2022-08-30T08:32:46.000Z,22.24
2022-08-30T08:33:44.000Z,22.24
2022-08-30T08:34:44.000Z,22.26
2022-08-30T08:35:44.000Z,22.30
2022-08-30T08:36:44.000Z,22.30
2022-08-30T08:37:44.000Z,22.34
2022-08-30T08:38:44.000Z,22.36
2022-08-30T08:39:44.000Z,22.39
2022-08-30T08:41:01.000Z,22.44
2022-08-30T08:41:58.000Z,22.43
2022-08-30T08:42:55.000Z,22.42
2022-08-30T08:43:44.000Z,22.43
2022-08-30T08:44:55.000Z,22.44
2022-08-30T08:45:53.000Z,22.47
2022-08-30T08:47:04.000Z,22.45
2022-08-30T08:47:53.000Z,22.48
2022-08-30T08:48:50.000Z,22.48
2022-08-30T08:49:48.000Z,22.51
2022-08-30T08:51:00.000Z,22.50
2022-08-30T08:51:48.000Z,22.51
2022-08-30T08:53:12.000Z,22.54
2022-08-30T08:53:50.000Z,22.60
2022-08-30T08:54:51.000Z,22.61
2022-08-30T08:55:49.000Z,22.64
2022-08-30T08:56:43.000Z,22.68
2022-08-30T08:57:43.000Z,22.76
2022-08-30T08:58:50.000Z,22.82
2022-08-30T08:59:44.000Z,22.90
2022-08-30T09:00:43.000Z,22.94
2022-08-30T09:01:45.000Z,23.02
2022-08-30T09:02:55.000Z,23.04
2022-08-30T09:03:44.000Z,23.06
2022-08-30T09:04:44.000Z,23.21
2022-08-30T09:05:44.000Z,23.23
2022-08-30T09:06:50.000Z,23.24
2022-08-30T09:07:50.000Z,23.20
2022-08-30T09:08:43.000Z,23.21
2022-08-30T09:09:44.000Z,23.26
2022-08-30T09:11:04.000Z,23.30
2022-08-30T09:11:45.000Z,23.26
2022-08-30T09:12:43.000Z,23.31
2022-08-30T09:13:43.000Z,23.32
2022-08-30T09:14:51.000Z,23.36
2022-08-30T09:15:43.000Z,23.34
2022-08-30T09:17:04.000Z,23.44
2022-08-30T09:17:51.000Z,23.51
2022-08-30T09:18:46.000Z,23.49
2022-08-30T09:19:56.000Z,23.51
2022-08-30T09:20:48.000Z,23.63
2022-08-30T09:21:44.000Z,23.63
2022-08-30T09:22:44.000Z,23.61
2022-08-30T09:23:53.000Z,23.61
2022-08-30T09:24:50.000Z,23.65
2022-08-30T09:26:04.000Z,23.71
2022-08-30T09:26:44.000Z,23.77
2022-08-30T09:27:47.000Z,23.80
2022-08-30T09:28:47.000Z,23.79
2022-08-30T09:29:54.000Z,23.79
2022-08-30T09:30:59.000Z,23.80
2022-08-30T09:31:47.000Z,23.85
2022-08-30T09:32:50.000Z,23.90
2022-08-30T09:33:54.000Z,23.96
2022-08-30T09:34:44.000Z,24.01
2022-08-30T09:35:48.000Z,24.10
2022-08-30T09:36:47.000Z,24.15
2022-08-30T09:37:56.000Z,24.21
2022-08-30T09:38:44.000Z,24.25
2022-08-30T09:39:44.000Z,24.35
2022-08-30T09:40:49.000Z,24.41
2022-08-30T09:41:47.000Z,24.52
2022-08-30T09:42:54.000Z,24.58
2022-08-30T09:43:43.000Z,24.62
2022-08-30T09:44:44.000Z,24.63
2022-08-30T09:45:47.000Z,24.67
2022-08-30T09:46:52.000Z,24.67
2022-08-30T09:47:43.000Z,24.76
2022-08-30T09:48:44.000Z,24.80
2022-08-30T09:49:43.000Z,24.84
2022-08-30T09:50:52.000Z,24.91
2022-08-30T09:51:53.000Z,25.03
2022-08-30T09:53:04.000Z,25.04
2022-08-30T09:53:55.000Z,25.06
2022-08-30T09:55:06.000Z,25.03
2022-08-30T09:55:54.000Z,25.03
2022-08-30T09:57:06.000Z,24.99
2022-08-30T09:57:55.000Z,24.96
2022-08-30T09:58:59.000Z,24.96
2022-08-30T09:59:58.000Z,24.98
2022-08-30T10:00:55.000Z,25.03
2022-08-30T10:01:53.000Z,25.04
2022-08-30T10:03:06.000Z,25.05
2022-08-30T10:04:02.000Z,25.04
2022-08-30T10:04:53.000Z,25.02
2022-08-30T10:06:03.000Z,25.03
2022-08-30T10:06:56.000Z,25.05
2022-08-30T10:08:10.000Z,25.11
2022-08-30T10:08:58.000Z,25.16
2022-08-30T10:09:53.000Z,25.21
2022-08-30T10:10:53.000Z,25.30
2022-08-30T10:11:53.000Z,25.35
2022-08-30T10:13:07.000Z,25.42
2022-08-30T10:13:53.000Z,25.45
2022-08-30T10:14:53.000Z,25.48
2022-08-30T10:15:51.000Z,25.72
2022-08-30T10:16:53.000Z,25.80
2022-08-30T10:17:54.000Z,25.75
2022-08-30T10:19:00.000Z,25.79
2022-08-30T10:20:06.000Z,25.88
2022-08-30T10:20:56.000Z,25.87
2022-08-30T10:21:53.000Z,25.92
2022-08-30T10:22:54.000Z,26.00
2022-08-30T10:23:48.000Z,26.12
2022-08-30T10:24:51.000Z,26.20
2022-08-30T10:25:51.000Z,26.16
2022-08-30T10:26:51.000Z,26.17
2022-08-30T10:28:11.000Z,26.18
2022-08-30T10:28:48.000Z,26.18
2022-08-30T10:29:51.000Z,26.23
2022-08-30T10:30:51.000Z,26.25
2022-08-30T10:31:51.000Z,26.32
2022-08-30T10:32:56.000Z,26.34
2022-08-30T10:33:47.000Z,26.44
2022-08-30T10:34:55.000Z,26.54
2022-08-30T10:35:53.000Z,26.61
2022-08-30T10:36:49.000Z,26.58
2022-08-30T10:37:48.000Z,26.57
2022-08-30T10:38:47.000Z,26.61
2022-08-30T10:39:51.000Z,26.62
2022-08-30T10:40:57.000Z,26.71
2022-08-30T10:41:53.000Z,26.78
2022-08-30T10:42:43.000Z,26.78
2022-08-30T10:43:53.000Z,26.86
2022-08-30T10:44:48.000Z,26.96
2022-08-30T10:45:46.000Z,26.95
2022-08-30T10:46:57.000Z,26.96
2022-08-30T10:47:55.000Z,26.94
2022-08-30T10:48:46.000Z,27.02
2022-08-30T10:49:45.000Z,27.04
2022-08-30T10:50:49.000Z,27.12
2022-08-30T10:51:57.000Z,27.14
2022-08-30T10:52:52.000Z,27.26
2022-08-30T10:53:51.000Z,27.34
2022-08-30T10:55:00.000Z,27.28
2022-08-30T10:55:51.000Z,27.35
2022-08-30T10:56:47.000Z,27.26
2022-08-30T10:57:44.000Z,27.36
2022-08-30T10:58:43.000Z,27.39
2022-08-30T10:59:55.000Z,27.32
2022-08-30T11:01:01.000Z,27.29
2022-08-30T11:02:06.000Z,27.29
2022-08-30T11:02:53.000Z,27.25
2022-08-30T11:03:53.000Z,27.28
2022-08-30T11:04:53.000Z,27.38
2022-08-30T11:05:54.000Z,27.40
2022-08-30T11:06:53.000Z,27.38
2022-08-30T11:07:58.000Z,27.43
2022-08-30T11:08:53.000Z,27.45
2022-08-30T11:10:01.000Z,27.45
2022-08-30T11:11:13.000Z,27.42
2022-08-30T11:11:57.000Z,27.42
2022-08-30T11:13:04.000Z,27.51
2022-08-30T11:13:45.000Z,27.57
2022-08-30T11:14:45.000Z,27.60
2022-08-30T11:15:54.000Z,27.60
2022-08-30T11:16:47.000Z,27.66
2022-08-30T11:18:04.000Z,27.71
2022-08-30T11:18:50.000Z,27.80
2022-08-30T11:19:44.000Z,27.74
2022-08-30T11:20:50.000Z,27.77
2022-08-30T11:21:44.000Z,27.75
2022-08-30T11:23:03.000Z,27.74
2022-08-30T11:23:53.000Z,27.74
2022-08-30T11:24:53.000Z,27.73
2022-08-30T11:25:53.000Z,27.68
2022-08-30T11:26:56.000Z,27.63
2022-08-30T11:27:53.000Z,27.59
2022-08-30T11:29:00.000Z,27.61
2022-08-30T11:29:43.000Z,27.59
2022-08-30T11:30:46.000Z,27.53
2022-08-30T11:31:43.000Z,27.54
2022-08-30T11:32:53.000Z,27.53
2022-08-30T11:33:46.000Z,27.47
2022-08-30T11:34:55.000Z,27.47
2022-08-30T11:35:47.000Z,27.43
2022-08-30T11:36:59.000Z,27.45
2022-08-30T11:37:43.000Z,27.42
2022-08-30T11:39:06.000Z,27.46
2022-08-30T11:39:59.000Z,27.50
2022-08-30T11:41:04.000Z,27.57
2022-08-30T11:41:46.000Z,27.55
2022-08-30T11:42:46.000Z,27.57
2022-08-30T11:43:49.000Z,27.61
2022-08-30T11:44:43.000Z,27.70
2022-08-30T11:45:46.000Z,27.82
2022-08-30T11:46:43.000Z,27.79
2022-08-30T11:47:53.000Z,27.86
2022-08-30T11:49:01.000Z,27.84
2022-08-30T11:50:07.000Z,27.94
2022-08-30T11:50:56.000Z,28.07
2022-08-30T11:51:53.000Z,28.14
2022-08-30T11:52:55.000Z,28.15
2022-08-30T11:53:53.000Z,28.17
2022-08-30T11:55:12.000Z,28.20
2022-08-30T11:55:58.000Z,28.31
2022-08-30T11:57:06.000Z,28.27
2022-08-30T11:57:56.000Z,28.26
2022-08-30T11:59:03.000Z,28.29
2022-08-30T12:00:02.000Z,28.40
2022-08-30T12:00:45.000Z,28.42
2022-08-30T12:01:43.000Z,28.43
2022-08-30T12:02:52.000Z,28.42
2022-08-30T12:03:51.000Z,28.52
2022-08-30T12:04:45.000Z,28.52
2022-08-30T12:06:00.000Z,28.59
2022-08-30T12:06:50.000Z,28.70
2022-08-30T12:07:59.000Z,28.71
2022-08-30T12:08:46.000Z,28.71
2022-08-30T12:09:58.000Z,28.78
2022-08-30T12:10:53.000Z,28.72
2022-08-30T12:11:53.000Z,28.67
2022-08-30T12:12:45.000Z,28.64
2022-08-30T12:13:59.000Z,28.65
2022-08-30T12:15:00.000Z,28.72
2022-08-30T12:15:53.000Z,28.73
2022-08-30T12:16:49.000Z,28.68
2022-08-30T12:17:55.000Z,28.66
2022-08-30T12:18:50.000Z,28.71
2022-08-30T12:19:46.000Z,28.72
2022-08-30T12:20:46.000Z,28.81
2022-08-30T12:21:54.000Z,28.85
2022-08-30T12:22:44.000Z,28.85
2022-08-30T12:23:53.000Z,28.84
2022-08-30T12:24:48.000Z,28.86
2022-08-30T12:25:44.000Z,28.89
2022-08-30T12:26:46.000Z,28.91
2022-08-30T12:27:43.000Z,28.93
2022-08-30T12:28:47.000Z,28.97
2022-08-30T12:29:53.000Z,28.99
2022-08-30T12:30:43.000Z,28.98
2022-08-30T12:32:13.000Z,29.01
2022-08-30T12:32:45.000Z,28.96
2022-08-30T12:33:47.000Z,28.88
2022-08-30T12:34:55.000Z,28.84
2022-08-30T12:35:43.000Z,28.90
2022-08-30T12:36:51.000Z,28.93
2022-08-30T12:37:55.000Z,28.94
2022-08-30T12:38:44.000Z,28.97
2022-08-30T12:39:44.000Z,29.00
2022-08-30T12:40:51.000Z,29.05
2022-08-30T12:41:44.000Z,29.12
2022-08-30T12:42:51.000Z,29.23
2022-08-30T12:43:51.000Z,29.27
2022-08-30T12:44:45.000Z,29.35
2022-08-30T12:45:45.000Z,29.35
2022-08-30T12:46:46.000Z,29.39
2022-08-30T12:47:52.000Z,29.41
2022-08-30T12:48:43.000Z,29.46
2022-08-30T12:49:45.000Z,29.48
2022-08-30T12:50:52.000Z,29.48
2022-08-30T12:51:44.000Z,29.56
2022-08-30T12:52:47.000Z,29.38